METAR Data
IDs: Format: Raw Decoded Include TAF

Data at: 2028 UTC 14 Dec 2018

KAUS 141953Z 31016G26KT 10SM OVC025 11/03 A3003 RMK AO2 PK WND 34028/1929 SLP173 T01060033
KAUS 141853Z 30012G23KT 10SM OVC026 09/03 A3006 RMK AO2 PK WND 33026/1757 SLP180 T00940028
KAUS 141753Z 32015G20KT 10SM OVC024 09/03 A3007 RMK AO2 PK WND 33026/1716 SLP184 T00890028 10089 20072 50013
KAUS 141653Z 31009G28KT 280V350 10SM OVC026 09/02 A3008 RMK AO2 PK WND 33028/1648 SLP187 T00890022
KAUS 141553Z 31011KT 10SM BKN026 OVC039 08/02 A3005 RMK AO2 PK WND 33028/1512 SLP177 T00830022
KAUS 141453Z 31014G21KT 10SM BKN024 OVC034 08/02 A3003 RMK AO2 PK WND 34027/1355 SLP171 T00780017 51023
KAUS 141353Z 33015G27KT 10SM BKN024 OVC035 07/01 A3001 RMK AO2 PK WND 31030/1301 SLP165 T00720011
KAUS 141253Z 32016G28KT 10SM BKN026 OVC043 07/01 A2998 RMK AO2 PK WND 32029/1214 SLP156 T00720011
KAUS 141153Z 31013G23KT 10SM OVC028 07/01 A2996 RMK AO2 PK WND 31032/1103 SLP146 60000 T00720011 10078 20072 53012
KAUS 141053Z 30018G32KT 10SM BKN028 BKN035 08/02 A2993 RMK AO2 PK WND 31033/1039 SLP137 T00780017
KAUS 141021Z 31018G27KT 10SM SCT024 BKN030 OVC038 07/02 A2992 RMK AO2 PK WND 33027/1019 T00720022
KAUS 140953Z 31017G31KT 10SM OVC025 07/02 A2992 RMK AO2 PK WND 33031/0953 SLP131 T00720017
KAUS 140853Z 31013G24KT 10SM OVC027 08/02 A2990 RMK AO2 PK WND 32028/0819 SLP124 60000 T00780017 53003
KAUS 140753Z 31018G29KT 10SM OVC029 08/02 A2989 RMK AO2 PK WND 33029/0710 RAE02 SLP121 P0000 T00780022
KAUS 140728Z 31016G27KT 10SM BKN029 OVC038 08/02 A2988 RMK AO2 PK WND 33029/0710 RAE02 P0000 T00780022
KAUS 140653Z 31016G28KT 10SM -RA SCT026 OVC034 08/03 A2989 RMK AO2 PK WND 31030/0628 SLP119 P0000 T00780033
KAUS 140553Z 31011G18KT 10SM -RA SCT029 OVC036 08/03 A2989 RMK AO2 PK WND 28026/0508 DZB04E18RAB18 SLP119 P0000 60000 T00780033 10111 20072 402280072 53006
KAUS 140523Z 30013G22KT 10SM -RA SCT025 SCT031 OVC038 08/03 A2989 RMK AO2 PK WND 28026/0508 DZB04E18RAB18 P0000 T00780028
KAUS 140453Z 30014G29KT 10SM BKN028 OVC033 08/02 A2988 RMK AO2 PK WND 29029/0407 SLP117 T00830022
KAUS 140353Z 30013G28KT 10SM SCT031 BKN070 09/02 A2987 RMK AO2 PK WND 29031/0307 SLP114 T00890022
KAUS 140253Z 29008G22KT 250V320 10SM OVC032 09/02 A2987 RMK AO2 PK WND 28029/0225 SLP115 T00890022 51010
KAUS 140153Z 28016G28KT 10SM OVC034 10/02 A2986 RMK AO2 PK WND 28028/0152 SLP111 T01000022
KAUS 140053Z 29016G25KT 10SM BKN036 10/03 A2986 RMK AO2 PK WND 29032/0034 SLP112 T01000028
KAUS 132353Z 29015G24KT 10SM FEW060 11/02 A2984 RMK AO2 PK WND 29035/2320 SLP104 T01110017 10222 20111 53033
KAUS 132253Z 30018G28KT 10SM FEW060 13/03 A2981 RMK AO2 PK WND 29035/2235 PRESRR SLP091 T01330033
KAUS 132153Z 27016G23KT 10SM FEW060 19/M02 A2975 RMK AO2 PK WND 27026/2057 SLP068 T01941022
KAUS 132053Z 27012G23KT 10SM FEW060 20/M03 A2974 RMK AO2 PK WND 28030/2031 SLP067 T02001028 53003
KAUS 131953Z 28011G24KT 10SM FEW060 FEW200 21/01 A2974 RMK AO2 SLP064 T02110011
KAUS 131853Z 27017G23KT 10SM FEW055 FEW090 SCT150 21/04 A2974 RMK AO2 SLP065 T02110039
KAUS 131753Z 29015G21KT 10SM FEW150 22/07 A2973 RMK AO2 SLP063 T02170067 10228 20128 58006
KAUS 131653Z 28013G18KT 10SM FEW130 22/09 A2974 RMK AO2 SLP067 T02170089
KAUS 131553Z 21008KT 10SM FEW120 19/14 A2975 RMK AO2 SLP069 T01890139
KAUS 131453Z 23006KT 9SM BCFG FEW110 17/14 A2975 RMK AO2 SLP072 T01670144 53015
KAUS 131353Z 23005KT 8SM BCFG FEW100 14/14 A2973 RMK AO2 SLP066 T01440139
KAUS 131253Z 20004KT 8SM FEW008 SCT100 13/13 A2971 RMK AO2 SLP061 T01330128
KAUS 131153Z 21005KT 8SM SCT007 SCT080 16/15 A2971 RMK AO2 SLP055 60000 T01610150 10183 20161 55007
KAUS 131136Z 24005KT 8SM SCT007 BKN080 16/15 A2969 RMK AO2 T01610150
KAUS 131053Z 21009KT 8SM OVC005 17/16 A2970 RMK AO2 SLP052 T01720161
KAUS 131022Z 21008KT 6SM BR OVC004 17/16 A2969 RMK AO2 T01720161
KAUS 130953Z 21007KT 7SM BKN005 OVC080 17/17 A2971 RMK AO2 RAE00 SLP055 P0000 T01720167
KAUS 130853Z 24007KT 7SM -RA BKN006 OVC080 18/17 A2973 RMK AO2 RAB23 SLP062 P0000 60000 T01780167 58030